Time;durP1;ratioP1;P1;durP2;ratioP2;P2;SDS_P1;SDS_P2;PMS_P1;PMS_P2;Temp;Humidity;BMP_temperature;BMP_pressure;BME280_temperature;BME280_humidity;BME280_pressure;Samples;Min_cycle;Max_cycle;Signal;HPM_P1;HPM_P2
2022/04/19 00:01:17;;;;;;;2.47;1.93;;;;;;;;;;5074444;28;20243;-82
2022/04/19 00:03:44;;;;;;;3.43;1.90;;;;;;;;;;5074533;28;20193;-82
2022/04/19 00:06:11;;;;;;;2.13;1.93;;;;;;;;;;5074711;28;20225;-83
2022/04/19 00:08:45;;;;;;;1.57;1.50;;;;;;;;;;5074163;28;20201;-83
2022/04/19 00:11:12;;;;;;;4.57;2.10;;;;;;;;;;5074046;28;20193;-82
2022/04/19 00:13:41;;;;;;;2.00;1.90;;;;;;;;;;5074285;28;20193;-82
2022/04/19 00:16:08;;;;;;;2.30;2.10;;;;;;;;;;5073420;28;20273;-82
2022/04/19 00:18:35;;;;;;;2.07;1.87;;;;;;;;;;5074207;28;20205;-82
2022/04/19 00:21:03;;;;;;;2.10;2.00;;;;;;;;;;5074391;28;20205;-82
2022/04/19 00:23:30;;;;;;;2.20;2.00;;;;;;;;;;5073963;28;20197;-82
2022/04/19 00:25:57;;;;;;;1.93;1.80;;;;;;;;;;5074198;28;20200;-82
2022/04/19 00:28:26;;;;;;;2.23;2.03;;;;;;;;;;5073913;28;20240;-82
2022/04/19 00:30:55;;;;;;;1.73;1.63;;;;;;;;;;5073869;28;20251;-82
2022/04/19 00:33:22;;;;;;;3.53;1.77;;;;;;;;;;5073759;28;20293;-82
2022/04/19 00:35:49;;;;;;;2.20;2.00;;;;;;;;;;5073725;28;20577;-82
2022/04/19 00:38:35;;;;;;;1.40;1.30;;;;;;;;;;5073972;28;20557;-82
2022/04/19 00:41:02;;;;;;;2.27;1.40;;;;;;;;;;5073950;28;20247;-82
2022/04/19 00:43:29;;;;;;;1.50;1.40;;;;;;;;;;5073423;28;20236;-82
2022/04/19 00:46:07;;;;;;;1.70;1.60;;;;;;;;;;5073922;28;20279;-82
2022/04/19 00:48:34;;;;;;;1.20;1.20;;;;;;;;;;5073706;28;20236;-83
2022/04/19 00:51:02;;;;;;;2.43;1.40;;;;;;;;;;5073818;28;20276;-82
2022/04/19 00:53:29;;;;;;;1.23;1.23;;;;;;;;;;5073842;28;20236;-82
2022/04/19 00:55:57;;;;;;;1.17;1.13;;;;;;;;;;5073105;28;20242;-82
2022/04/19 00:58:24;;;;;;;1.63;1.53;;;;;;;;;;5073355;28;20205;-82
2022/04/19 01:00:51;;;;;;;2.57;1.30;;;;;;;;;;5073218;28;20688;-83
2022/04/19 01:03:21;;;;;;;1.90;1.80;;;;;;;;;;5073374;28;20205;-82
2022/04/19 01:05:53;;;;;;;1.73;1.63;;;;;;;;;;5072966;28;20201;-83
2022/04/19 01:08:20;;;;;;;2.93;1.73;;;;;;;;;;5073373;28;20186;-83
2022/04/19 01:10:48;;;;;;;1.90;1.80;;;;;;;;;;5073003;28;20291;-83
2022/04/19 01:13:18;;;;;;;2.43;2.17;;;;;;;;;;5073226;28;20665;-83
2022/04/19 01:15:47;;;;;;;2.50;2.10;;;;;;;;;;5072627;28;20699;-82
2022/04/19 01:18:15;;;;;;;3.83;2.43;;;;;;;;;;5072464;28;20224;-82
2022/04/19 01:20:44;;;;;;;2.43;2.20;;;;;;;;;;5073108;28;20227;-82
2022/04/19 01:23:12;;;;;;;2.00;1.90;;;;;;;;;;5072979;28;20627;-82
2022/04/19 01:25:40;;;;;;;3.47;2.33;;;;;;;;;;5072759;28;20311;-82
2022/04/19 01:28:07;;;;;;;2.10;1.90;;;;;;;;;;5072959;28;20251;-82
2022/04/19 01:30:34;;;;;;;5.90;5.30;;;;;;;;;;5072714;28;20193;-81
2022/04/19 01:33:02;;;;;;;6.07;5.57;;;;;;;;;;5072934;28;20287;-81
2022/04/19 01:35:29;;;;;;;6.83;6.20;;;;;;;;;;5072574;28;20197;-81
2022/04/19 01:37:59;;;;;;;7.60;5.90;;;;;;;;;;5072602;28;20207;-81
2022/04/19 01:40:28;;;;;;;5.37;4.87;;;;;;;;;;5072370;28;20601;-82
2022/04/19 01:43:00;;;;;;;4.30;3.90;;;;;;;;;;5072847;28;20300;-81
2022/04/19 01:45:33;;;;;;;2.10;2.00;;;;;;;;;;5072402;28;20223;-81
2022/04/19 01:48:01;;;;;;;2.33;2.13;;;;;;;;;;5072620;28;20279;-82
2022/04/19 01:50:32;;;;;;;2.30;2.10;;;;;;;;;;5072257;28;20730;-82
2022/04/19 01:53:00;;;;;;;1.80;1.70;;;;;;;;;;5072744;28;20587;-81
2022/04/19 01:55:32;;;;;;;1.70;1.60;;;;;;;;;;5072181;28;20200;-81
2022/04/19 01:58:00;;;;;;;2.67;2.20;;;;;;;;;;5072202;28;20201;-82
2022/04/19 02:00:29;;;;;;;2.00;1.80;;;;;;;;;;5072394;28;20282;-81
2022/04/19 02:02:57;;;;;;;1.77;1.67;;;;;;;;;;5072299;28;20204;-81
2022/04/19 02:05:25;;;;;;;1.67;1.53;;;;;;;;;;5072129;28;20292;-81
2022/04/19 02:07:58;;;;;;;2.23;2.03;;;;;;;;;;5072068;28;20236;-81
2022/04/19 02:10:25;;;;;;;2.40;2.20;;;;;;;;;;5071125;28;20276;-81
2022/04/19 02:12:57;;;;;;;2.60;2.40;;;;;;;;;;5072134;28;20201;-82
2022/04/19 02:15:24;;;;;;;2.63;2.43;;;;;;;;;;5071773;28;20255;-81
2022/04/19 02:17:52;;;;;;;2.20;2.00;;;;;;;;;;5071832;28;20194;-81
2022/04/19 02:20:19;;;;;;;2.83;2.10;;;;;;;;;;5072021;28;20308;-81
2022/04/19 02:22:47;;;;;;;2.60;2.40;;;;;;;;;;5072078;28;20229;-81
2022/04/19 02:25:16;;;;;;;4.77;4.30;;;;;;;;;;5071665;28;20661;-81
2022/04/19 02:27:49;;;;;;;4.73;3.83;;;;;;;;;;5071971;28;20287;-81
2022/04/19 02:30:18;;;;;;;2.50;2.30;;;;;;;;;;5071972;28;20625;-81
2022/04/19 02:32:49;;;;;;;1.80;1.70;;;;;;;;;;5072296;28;20224;-81
2022/04/19 02:35:17;;;;;;;2.97;1.90;;;;;;;;;;5071412;28;20287;-81
2022/04/19 02:37:49;;;;;;;1.60;1.50;;;;;;;;;;5073179;28;20248;-82
2022/04/19 02:40:20;;;;;;;1.97;1.87;;;;;;;;;;5071907;28;20244;-81
2022/04/19 02:42:54;;;;;;;1.93;1.70;;;;;;;;;;5071842;28;20225;-82
2022/04/19 02:45:23;;;;;;;2.27;1.90;;;;;;;;;;5071973;28;20196;-82
2022/04/19 02:48:03;;;;;;;2.13;1.90;;;;;;;;;;5071841;28;20317;-82
2022/04/19 02:50:30;;;;;;;2.10;1.90;;;;;;;;;;5071907;28;20188;-82
2022/04/19 02:52:57;;;;;;;1.90;1.80;;;;;;;;;;5071620;28;20304;-82
2022/04/19 02:55:30;;;;;;;2.93;2.33;;;;;;;;;;5071889;28;20254;-82
2022/04/19 02:57:58;;;;;;;2.03;1.93;;;;;;;;;;5071484;28;20293;-82
2022/04/19 03:00:29;;;;;;;2.93;2.67;;;;;;;;;;5071452;28;20316;-82
2022/04/19 03:02:57;;;;;;;6.37;5.30;;;;;;;;;;5071397;28;20343;-82
2022/04/19 03:05:27;;;;;;;4.20;3.90;;;;;;;;;;5071285;28;20284;-82
2022/04/19 03:07:54;;;;;;;5.33;4.63;;;;;;;;;;5072008;28;20564;-82
2022/04/19 03:10:27;;;;;;;4.90;4.20;;;;;;;;;;5070979;28;20288;-82
2022/04/19 03:12:55;;;;;;;5.43;4.37;;;;;;;;;;5071535;28;20687;-82
2022/04/19 03:15:22;;;;;;;4.63;3.40;;;;;;;;;;5071318;28;20235;-81
2022/04/19 03:17:51;;;;;;;3.03;2.70;;;;;;;;;;5071637;28;20275;-82
2022/04/19 03:20:18;;;;;;;1.93;1.83;;;;;;;;;;5071131;28;20261;-82
2022/04/19 03:28:28;;;;;;;8.60;6.10;;;;;;;;;;5070064;28;20257;-81
2022/04/19 03:30:56;;;;;;;7.83;7.03;;;;;;;;;;5075120;28;20276;-81
2022/04/19 03:33:24;;;;;;;6.30;5.33;;;;;;;;;;5074703;28;20292;-82
2022/04/19 03:35:56;;;;;;;4.37;3.87;;;;;;;;;;5074886;28;20287;-82
2022/04/19 03:38:24;;;;;;;3.33;3.03;;;;;;;;;;5074795;28;20189;-82
2022/04/19 03:40:51;;;;;;;2.60;2.40;;;;;;;;;;5075069;28;20231;-82
2022/04/19 03:43:18;;;;;;;2.70;2.27;;;;;;;;;;5075022;28;20287;-82
2022/04/19 03:45:48;;;;;;;3.00;2.70;;;;;;;;;;5074684;28;20235;-82
2022/04/19 03:48:16;;;;;;;2.60;2.40;;;;;;;;;;5074380;28;20251;-82
2022/04/19 03:50:45;;;;;;;2.73;2.53;;;;;;;;;;5074835;28;20379;-82
2022/04/19 03:53:12;;;;;;;2.30;2.10;;;;;;;;;;5074808;28;20196;-82
2022/04/19 03:55:42;;;;;;;2.97;2.33;;;;;;;;;;5074671;28;20243;-81
2022/04/19 03:58:09;;;;;;;2.50;2.30;;;;;;;;;;5074486;28;20237;-82
2022/04/19 04:00:36;;;;;;;6.43;3.70;;;;;;;;;;5074448;28;20263;-82
2022/04/19 04:03:05;;;;;;;2.77;2.57;;;;;;;;;;5074839;28;20225;-81
2022/04/19 04:05:33;;;;;;;3.90;3.50;;;;;;;;;;5074704;28;20201;-82
2022/04/19 04:08:01;;;;;;;3.83;3.37;;;;;;;;;;5074208;28;20228;-82
2022/04/19 04:10:31;;;;;;;3.20;3.00;;;;;;;;;;5074546;28;20255;-82
2022/04/19 04:13:00;;;;;;;3.67;3.37;;;;;;;;;;5074436;28;20716;-81
2022/04/19 04:15:27;;;;;;;4.23;3.83;;;;;;;;;;5073873;28;20303;-82
2022/04/19 04:17:54;;;;;;;6.37;5.00;;;;;;;;;;5074429;28;20246;-82
2022/04/19 04:20:27;;;;;;;5.57;4.10;;;;;;;;;;5074019;28;20256;-81
2022/04/19 04:22:54;;;;;;;3.17;2.87;;;;;;;;;;5074146;28;20276;-81
2022/04/19 04:25:23;;;;;;;2.93;2.70;;;;;;;;;;5073962;28;20703;-82
2022/04/19 04:27:57;;;;;;;3.83;2.80;;;;;;;;;;5074621;28;20284;-82
2022/04/19 04:30:25;;;;;;;3.77;3.47;;;;;;;;;;5073911;28;20228;-81
2022/04/19 04:33:01;;;;;;;7.80;5.80;;;;;;;;;;5072957;28;20678;-82
2022/04/19 04:35:32;;;;;;;8.87;7.10;;;;;;;;;;5073920;28;20728;-82
2022/04/19 04:37:59;;;;;;;5.60;4.43;;;;;;;;;;5073833;28;20213;-81
2022/04/19 04:40:34;;;;;;;3.73;3.37;;;;;;;;;;5073532;28;20341;-82
2022/04/19 04:43:01;;;;;;;3.03;2.73;;;;;;;;;;5073815;28;20236;-82
2022/04/19 04:45:31;;;;;;;3.13;2.87;;;;;;;;;;5073572;28;20705;-82
2022/04/19 04:50:42;;;;;;;4.53;2.73;;;;;;;;;;5073409;28;20180;-82
2022/04/19 04:53:10;;;;;;;3.40;3.10;;;;;;;;;;5073945;28;20225;-82
2022/04/19 04:55:38;;;;;;;3.33;3.07;;;;;;;;;;5073681;28;20562;-82
2022/04/19 04:58:06;;;;;;;3.23;2.90;;;;;;;;;;5073351;28;20761;-82
2022/04/19 05:00:39;;;;;;;3.60;3.30;;;;;;;;;;5073174;28;20312;-82
2022/04/19 05:03:07;;;;;;;3.53;3.03;;;;;;;;;;5073270;28;20287;-82
2022/04/19 05:05:37;;;;;;;3.57;3.27;;;;;;;;;;5073174;28;20260;-82
2022/04/19 05:08:12;;;;;;;4.30;3.90;;;;;;;;;;5073418;28;20279;-82
2022/04/19 05:10:40;;;;;;;5.50;4.93;;;;;;;;;;5073117;28;20704;-82
2022/04/19 05:13:08;;;;;;;16.77;9.87;;;;;;;;;;5073354;28;20197;-81
2022/04/19 05:15:38;;;;;;;5.47;4.43;;;;;;;;;;5072871;28;20324;-81
2022/04/19 05:18:05;;;;;;;4.67;3.80;;;;;;;;;;5073215;28;20280;-82
2022/04/19 05:20:32;;;;;;;4.03;3.43;;;;;;;;;;5072841;28;20705;-81
2022/04/19 05:22:59;;;;;;;5.57;5.07;;;;;;;;;;5073478;28;20586;-82
2022/04/19 05:25:32;;;;;;;4.77;4.00;;;;;;;;;;5072791;28;20244;-82
2022/04/19 05:28:01;;;;;;;4.23;3.70;;;;;;;;;;5073333;28;20228;-81
2022/04/19 05:30:28;;;;;;;4.60;4.10;;;;;;;;;;5072566;28;20225;-81
2022/04/19 05:32:58;;;;;;;6.20;4.43;;;;;;;;;;5072611;28;20724;-81
2022/04/19 05:35:26;;;;;;;8.23;3.97;;;;;;;;;;5072727;28;20236;-81
2022/04/19 05:37:59;;;;;;;6.50;4.50;;;;;;;;;;5072757;28;20658;-81
2022/04/19 05:40:26;;;;;;;5.33;3.83;;;;;;;;;;5072187;28;20221;-82
2022/04/19 05:42:56;;;;;;;3.60;3.17;;;;;;;;;;5072627;28;20284;-81
2022/04/19 05:45:34;;;;;;;3.63;3.30;;;;;;;;;;5072741;28;20713;-81
2022/04/19 05:48:02;;;;;;;3.90;3.50;;;;;;;;;;5072519;28;20197;-82
2022/04/19 05:50:32;;;;;;;3.30;3.00;;;;;;;;;;5072363;28;20283;-81
2022/04/19 05:52:59;;;;;;;4.07;3.43;;;;;;;;;;5072449;28;20288;-82
2022/04/19 05:55:26;;;;;;;3.40;3.10;;;;;;;;;;5072079;28;20292;-82
2022/04/19 05:57:53;;;;;;;3.57;3.27;;;;;;;;;;5072675;28;20262;-82
2022/04/19 06:00:21;;;;;;;4.30;3.93;;;;;;;;;;5071949;28;20316;-81
2022/04/19 06:05:34;;;;;;;10.27;9.37;;;;;;;;;;5072289;28;20561;-81
2022/04/19 06:08:07;;;;;;;6.20;5.70;;;;;;;;;;5072156;28;20197;-81
2022/04/19 06:10:41;;;;;;;16.00;14.53;;;;;;;;;;5071994;28;20288;-80
2022/04/19 06:13:09;;;;;;;7.87;7.27;;;;;;;;;;5071959;28;20288;-80
2022/04/19 06:15:37;;;;;;;3.70;3.37;;;;;;;;;;5071573;28;20733;-81
2022/04/19 06:18:06;;;;;;;3.77;3.47;;;;;;;;;;5072145;28;20201;-81
2022/04/19 06:20:34;;;;;;;3.50;3.20;;;;;;;;;;5071865;28;20316;-81
2022/04/19 06:23:01;;;;;;;15.33;13.57;;;;;;;;;;5072271;28;20203;-81
2022/04/19 06:25:31;;;;;;;6.03;5.53;;;;;;;;;;5072059;28;20284;-81
2022/04/19 06:27:59;;;;;;;3.60;3.30;;;;;;;;;;5072080;28;20638;-82
2022/04/19 06:30:26;;;;;;;4.33;3.93;;;;;;;;;;5071588;28;20197;-81
2022/04/19 06:32:54;;;;;;;3.60;3.30;;;;;;;;;;5072049;28;20588;-82
2022/04/19 06:35:22;;;;;;;4.30;3.90;;;;;;;;;;5071637;28;20292;-80
2022/04/19 06:37:58;;;;;;;4.43;3.70;;;;;;;;;;5072146;28;20288;-82
2022/04/19 06:40:26;;;;;;;3.60;3.30;;;;;;;;;;5071645;28;20276;-81
2022/04/19 06:42:54;;;;;;;4.23;3.93;;;;;;;;;;5071781;28;20239;-81
2022/04/19 06:45:22;;;;;;;10.73;9.77;;;;;;;;;;5071883;28;20204;-81
2022/04/19 06:47:56;;;;;;;5.93;5.33;;;;;;;;;;5071839;28;20196;-81
2022/04/19 06:50:28;;;;;;;4.10;3.80;;;;;;;;;;5071561;28;20632;-82
2022/04/19 06:52:56;;;;;;;4.07;3.77;;;;;;;;;;5071659;28;20560;-82
2022/04/19 06:55:23;;;;;;;5.17;4.60;;;;;;;;;;5071836;28;20283;-82
2022/04/19 06:57:57;;;;;;;3.63;3.37;;;;;;;;;;5075460;28;20296;-81
2022/04/19 07:00:24;;;;;;;4.90;4.50;;;;;;;;;;5075306;28;20201;-81
2022/04/19 07:02:51;;;;;;;3.77;3.47;;;;;;;;;;5076053;28;20224;-81
2022/04/19 07:05:19;;;;;;;7.37;6.67;;;;;;;;;;5075780;28;20236;-81
2022/04/19 07:07:47;;;;;;;5.97;5.40;;;;;;;;;;5075377;28;20287;-81
2022/04/19 07:10:14;;;;;;;4.20;3.90;;;;;;;;;;5075420;28;20288;-81
2022/04/19 07:12:42;;;;;;;4.37;3.97;;;;;;;;;;5075556;28;20755;-81
2022/04/19 07:15:09;;;;;;;3.90;3.50;;;;;;;;;;5074893;28;20305;-81
2022/04/19 07:17:41;;;;;;;3.67;3.37;;;;;;;;;;5075519;28;20182;-81
2022/04/19 07:28:35;;;;;;;5.23;4.73;;;;;;;;;;5075308;28;20607;-81
2022/04/19 07:31:03;;;;;;;4.70;4.37;;;;;;;;;;5074957;28;20189;-81
2022/04/19 07:33:30;;;;;;;4.77;4.37;;;;;;;;;;5074967;28;20197;-81
2022/04/19 07:35:57;;;;;;;4.77;4.27;;;;;;;;;;5074915;28;20213;-81
2022/04/19 07:38:26;;;;;;;5.60;5.10;;;;;;;;;;5075036;28;20236;-80
2022/04/19 07:40:53;;;;;;;4.90;4.40;;;;;;;;;;5074713;28;20221;-81
2022/04/19 07:43:24;;;;;;;5.27;4.53;;;;;;;;;;5074877;28;20593;-81
2022/04/19 07:45:51;;;;;;;19.60;17.70;;;;;;;;;;5074681;28;20296;-80
2022/04/19 07:48:18;;;;;;;6.13;5.53;;;;;;;;;;5074497;28;20284;-81
2022/04/19 07:50:55;;;;;;;5.70;5.13;;;;;;;;;;5074492;28;20189;-81
2022/04/19 07:53:22;;;;;;;4.87;4.47;;;;;;;;;;5075038;28;20224;-81
2022/04/19 07:55:51;;;;;;;5.83;5.10;;;;;;;;;;5074874;28;20578;-81
2022/04/19 07:58:18;;;;;;;5.03;4.37;;;;;;;;;;5074683;28;20286;-81
2022/04/19 08:00:46;;;;;;;4.73;4.20;;;;;;;;;;5074365;28;20703;-81
2022/04/19 08:03:13;;;;;;;5.17;4.67;;;;;;;;;;5074427;28;20748;-81
2022/04/19 08:05:41;;;;;;;6.40;4.90;;;;;;;;;;5074731;28;20266;-81
2022/04/19 08:08:08;;;;;;;7.73;6.77;;;;;;;;;;5073150;28;20292;-81
2022/04/19 08:10:35;;;;;;;8.33;7.63;;;;;;;;;;5074211;28;20288;-81
2022/04/19 08:13:04;;;;;;;7.73;7.03;;;;;;;;;;5074059;28;20299;-81
2022/04/19 08:15:32;;;;;;;5.90;5.40;;;;;;;;;;5074090;28;20236;-81
2022/04/19 08:17:59;;;;;;;5.20;4.80;;;;;;;;;;5074256;28;20177;-81
2022/04/19 08:20:32;;;;;;;8.33;7.63;;;;;;;;;;5074331;28;20232;-81
2022/04/19 08:23:08;;;;;;;5.87;5.37;;;;;;;;;;5073950;28;20736;-81
2022/04/19 08:25:36;;;;;;;4.20;3.80;;;;;;;;;;5074328;28;20204;-81
2022/04/19 08:28:05;;;;;;;8.43;7.63;;;;;;;;;;5074396;28;20229;-80
2022/04/19 08:30:38;;;;;;;11.73;10.67;;;;;;;;;;5074190;28;20283;-81
2022/04/19 08:33:06;;;;;;;9.80;8.90;;;;;;;;;;5073832;28;20232;-80
2022/04/19 08:35:33;;;;;;;8.93;8.10;;;;;;;;;;5073815;28;20288;-81
2022/04/19 08:38:00;;;;;;;4.77;4.03;;;;;;;;;;5074299;28;20636;-80
2022/04/19 08:40:28;;;;;;;4.87;4.37;;;;;;;;;;5073810;28;20205;-81
2022/04/19 08:42:57;;;;;;;5.50;5.07;;;;;;;;;;5073624;28;20232;-80
2022/04/19 08:45:26;;;;;;;18.37;16.37;;;;;;;;;;5073529;28;20200;-81
2022/04/19 08:47:58;;;;;;;10.93;9.83;;;;;;;;;;5073769;28;20258;-81
2022/04/19 08:50:26;;;;;;;17.23;15.00;;;;;;;;;;5073671;28;20193;-80
2022/04/19 08:58:23;;;;;;;8.97;8.17;;;;;;;;;;5042796;28;20653;-80
2022/04/19 09:00:52;;;;;;;5.70;5.20;;;;;;;;;;5073288;28;20205;-80
2022/04/19 09:03:20;;;;;;;5.90;5.40;;;;;;;;;;5073479;28;20288;-80
2022/04/19 09:06:03;;;;;;;17.87;14.47;;;;;;;;;;5073265;28;20201;-80
2022/04/19 09:08:30;;;;;;;20.03;18.03;;;;;;;;;;5073788;28;20258;-80
2022/04/19 09:11:06;;;;;;;16.47;14.73;;;;;;;;;;5073535;28;20284;-80
2022/04/19 09:13:34;;;;;;;10.90;9.80;;;;;;;;;;5073485;28;20196;-80
2022/04/19 09:16:08;;;;;;;16.50;13.30;;;;;;;;;;5073217;28;20388;-80
2022/04/19 09:18:37;;;;;;;12.90;10.17;;;;;;;;;;5072675;28;20253;-81
2022/04/19 09:21:05;;;;;;;9.03;8.00;;;;;;;;;;5072853;28;20661;-81
2022/04/19 09:23:34;;;;;;;10.83;8.13;;;;;;;;;;5072953;28;20673;-81
2022/04/19 09:26:04;;;;;;;8.80;7.70;;;;;;;;;;5072840;28;20748;-81
2022/04/19 09:28:32;;;;;;;74.17;50.27;;;;;;;;;;5073005;28;20284;-81
2022/04/19 09:31:00;;;;;;;30.23;22.73;;;;;;;;;;5072790;28;20665;-82
2022/04/19 09:33:30;;;;;;;27.27;19.00;;;;;;;;;;5072854;28;20193;-81
2022/04/19 09:36:01;;;;;;;26.83;23.93;;;;;;;;;;5072938;28;20262;-82
2022/04/19 09:38:36;;;;;;;21.80;19.50;;;;;;;;;;5072854;28;20637;-82
2022/04/19 09:41:04;;;;;;;12.03;10.80;;;;;;;;;;5072617;28;20207;-81
2022/04/19 09:43:32;;;;;;;9.07;8.20;;;;;;;;;;5072999;28;20596;-81
2022/04/19 09:46:02;;;;;;;8.60;7.80;;;;;;;;;;5072282;28;20254;-82
2022/04/19 09:48:32;;;;;;;15.93;14.30;;;;;;;;;;5072620;28;20186;-82
2022/04/19 09:51:03;;;;;;;17.33;15.63;;;;;;;;;;5072724;28;20236;-82
2022/04/19 09:53:34;;;;;;;11.33;10.23;;;;;;;;;;5072892;28;20181;-82
2022/04/19 09:56:01;;;;;;;8.30;7.50;;;;;;;;;;5072244;28;20284;-82
2022/04/19 09:58:41;;;;;;;8.83;8.03;;;;;;;;;;5072434;28;20193;-82
2022/04/19 10:08:10;;;;;;;9.03;8.23;;;;;;;;;;5072290;28;20201;-83
2022/04/19 10:09:28;;;;;;;11.03;9.70;;;;;;;;;;5072408;28;20303;-83
2022/04/19 10:11:55;;;;;;;16.50;15.00;;;;;;;;;;5072190;28;20275;-82
2022/04/19 10:14:23;;;;;;;12.57;11.37;;;;;;;;;;5072110;28;20232;-82
2022/04/19 10:16:54;;;;;;;9.40;8.60;;;;;;;;;;5072208;28;20267;-83
2022/04/19 10:19:22;;;;;;;7.30;6.60;;;;;;;;;;5071913;28;20287;-83
2022/04/19 10:21:50;;;;;;;9.50;8.60;;;;;;;;;;5071949;28;20312;-83
2022/04/19 10:24:18;;;;;;;8.77;7.93;;;;;;;;;;5071588;28;20196;-82
2022/04/19 10:26:47;;;;;;;10.13;9.17;;;;;;;;;;5071838;28;20287;-83
2022/04/19 10:29:20;;;;;;;9.73;8.93;;;;;;;;;;5071775;28;20670;-82
2022/04/19 10:32:00;;;;;;;7.43;6.83;;;;;;;;;;5071511;28;20279;-83
2022/04/19 10:34:30;;;;;;;10.00;9.10;;;;;;;;;;5071847;28;20189;-82
2022/04/19 10:37:01;;;;;;;8.63;7.87;;;;;;;;;;5072254;28;20200;-82
2022/04/19 10:39:31;;;;;;;7.97;7.27;;;;;;;;;;5071850;28;20569;-82
2022/04/19 10:41:59;;;;;;;8.47;7.77;;;;;;;;;;5071775;28;20220;-82
2022/04/19 10:44:29;;;;;;;9.87;8.20;;;;;;;;;;5071415;28;20661;-82
2022/04/19 10:47:11;;;;;;;13.27;11.30;;;;;;;;;;5071838;28;20185;-82
2022/04/19 10:49:59;;;;;;;10.00;9.10;;;;;;;;;;5071679;28;20243;-82
2022/04/19 10:52:46;;;;;;;16.83;13.57;;;;;;;;;;5072097;28;20181;-82
2022/04/19 10:55:16;;;;;;;11.17;10.07;;;;;;;;;;5071381;28;20243;-82
2022/04/19 11:00:38;;;;;;;11.10;9.93;;;;;;;;;;5070495;28;20284;-82
2022/04/19 11:03:10;;;;;;;84.60;42.33;;;;;;;;;;5071180;28;20299;-82
2022/04/19 11:05:43;;;;;;;42.83;34.10;;;;;;;;;;5071305;28;20696;-82
2022/04/19 11:08:33;;;;;;;20.07;18.07;;;;;;;;;;5071692;28;20185;-82
2022/04/19 11:11:22;;;;;;;15.60;14.10;;;;;;;;;;5071285;28;20181;-82
2022/04/19 11:14:20;;;;;;;14.10;12.63;;;;;;;;;;5071470;28;20193;-82
2022/04/19 11:16:50;;;;;;;10.47;9.43;;;;;;;;;;5071414;28;20237;-82
2022/04/19 11:19:21;;;;;;;10.73;9.80;;;;;;;;;;5071063;28;20193;-82
2022/04/19 11:22:00;;;;;;;10.40;9.53;;;;;;;;;;5071438;28;20250;-82
2022/04/19 11:25:02;;;;;;;9.50;8.63;;;;;;;;;;5071264;28;20272;-82
2022/04/19 11:28:02;;;;;;;10.07;9.10;;;;;;;;;;5071748;28;20279;-82
2022/04/19 11:30:30;;;;;;;10.53;8.23;;;;;;;;;;5038027;28;20280;-82
2022/04/19 11:32:58;;;;;;;11.37;10.37;;;;;;;;;;5071321;28;20731;-82
2022/04/19 11:35:32;;;;;;;10.53;8.47;;;;;;;;;;5071509;28;20201;-82
2022/04/19 11:38:04;;;;;;;14.23;11.90;;;;;;;;;;5071347;28;20189;-82
2022/04/19 11:49:03;;;;;;;8.93;8.13;;;;;;;;;;5075295;28;20668;-82
2022/04/19 11:51:37;;;;;;;9.47;8.50;;;;;;;;;;5075072;28;20283;-82
2022/04/19 11:54:08;;;;;;;10.63;9.73;;;;;;;;;;5074644;28;20192;-82
2022/04/19 11:56:36;;;;;;;10.57;9.43;;;;;;;;;;5074618;28;20200;-82
2022/04/19 11:59:04;;;;;;;24.43;20.30;;;;;;;;;;5074453;28;20669;-82
2022/04/19 12:01:31;;;;;;;11.87;10.67;;;;;;;;;;5074447;28;20236;-82
2022/04/19 12:03:59;;;;;;;58.33;40.43;;;;;;;;;;5074505;28;20278;-82
2022/04/19 12:06:26;;;;;;;33.87;26.87;;;;;;;;;;5074515;28;20228;-82
2022/04/19 12:08:54;;;;;;;20.93;18.70;;;;;;;;;;5074202;28;20287;-82
2022/04/19 12:11:35;;;;;;;20.67;18.53;;;;;;;;;;5074677;28;20562;-82
2022/04/19 12:14:03;;;;;;;20.77;15.93;;;;;;;;;;5074331;28;20199;-82
2022/04/19 12:16:31;;;;;;;16.80;13.87;;;;;;;;;;5074205;28;20267;-82
2022/04/19 12:19:07;;;;;;;22.40;15.17;;;;;;;;;;5074086;28;20197;-81
2022/04/19 12:21:38;;;;;;;15.27;10.93;;;;;;;;;;5074639;28;20564;-81
2022/04/19 12:24:07;;;;;;;28.17;22.03;;;;;;;;;;5074013;28;20224;-82
2022/04/19 12:26:36;;;;;;;11.03;9.87;;;;;;;;;;5074305;28;20208;-81
2022/04/19 12:29:13;;;;;;;13.77;12.33;;;;;;;;;;5073712;28;20284;-81
2022/04/19 12:31:41;;;;;;;19.73;12.37;;;;;;;;;;5074251;28;20181;-81
2022/04/19 12:34:10;;;;;;;33.60;22.47;;;;;;;;;;5074224;28;20284;-81
2022/04/19 12:36:47;;;;;;;85.70;51.60;;;;;;;;;;5073944;28;20193;-81
2022/04/19 12:39:16;;;;;;;40.47;32.73;;;;;;;;;;5073646;28;20642;-81
2022/04/19 12:41:51;;;;;;;27.60;24.63;;;;;;;;;;5073987;28;20254;-81
2022/04/19 12:44:19;;;;;;;22.87;19.07;;;;;;;;;;5073830;28;20692;-81
2022/04/19 12:46:48;;;;;;;19.27;16.37;;;;;;;;;;5073896;28;20228;-81
2022/04/19 12:49:23;;;;;;;53.60;42.00;;;;;;;;;;5073473;28;20284;-81
2022/04/19 12:52:04;;;;;;;27.83;23.23;;;;;;;;;;5073753;28;20283;-81
2022/04/19 12:54:35;;;;;;;31.83;26.07;;;;;;;;;;5073119;28;20614;-81
2022/04/19 12:57:06;;;;;;;10.27;9.37;;;;;;;;;;5073744;28;20287;-81
2022/04/19 12:59:33;;;;;;;10.63;9.63;;;;;;;;;;5073152;28;20196;-81
2022/04/19 13:02:01;;;;;;;18.90;17.20;;;;;;;;;;5073714;28;20199;-82
2022/04/19 13:04:29;;;;;;;11.67;10.63;;;;;;;;;;5073575;28;20627;-81
2022/04/19 13:12:27;;;;;;;9.77;8.77;;;;;;;;;;5073888;28;20686;-83
2022/04/19 13:14:56;;;;;;;9.03;8.17;;;;;;;;;;5073105;28;20291;-82
2022/04/19 13:17:24;;;;;;;8.20;7.40;;;;;;;;;;5072655;28;20236;-83
2022/04/19 13:19:52;;;;;;;11.07;10.13;;;;;;;;;;5073077;28;20276;-82
2022/04/19 13:22:19;;;;;;;10.73;9.73;;;;;;;;;;5073113;28;20634;-80
2022/04/19 13:24:47;;;;;;;8.80;7.90;;;;;;;;;;5073116;28;20193;-81
2022/04/19 13:27:14;;;;;;;8.30;7.50;;;;;;;;;;5073081;28;20273;-82
2022/04/19 13:29:43;;;;;;;9.23;8.40;;;;;;;;;;5073116;28;20267;-81
2022/04/19 13:32:11;;;;;;;9.43;8.57;;;;;;;;;;5073021;28;20208;-81
2022/04/19 13:34:39;;;;;;;10.47;9.00;;;;;;;;;;5072931;28;20192;-81
2022/04/19 13:37:06;;;;;;;15.13;13.30;;;;;;;;;;5073095;28;20616;-81
2022/04/19 13:39:34;;;;;;;11.43;10.23;;;;;;;;;;5072935;28;20649;-82
2022/04/19 13:42:05;;;;;;;13.03;11.73;;;;;;;;;;5072765;28;20292;-82
2022/04/19 13:44:32;;;;;;;11.50;10.07;;;;;;;;;;5072529;28;20312;-82
2022/04/19 13:47:07;;;;;;;9.30;8.13;;;;;;;;;;5072454;28;20284;-82
2022/04/19 13:49:34;;;;;;;16.33;14.63;;;;;;;;;;5072490;28;20669;-82
2022/04/19 13:52:01;;;;;;;19.50;17.70;;;;;;;;;;5072879;28;20280;-81
2022/04/19 13:54:28;;;;;;;18.73;16.67;;;;;;;;;;5072399;28;20197;-81
2022/04/19 13:56:56;;;;;;;13.53;12.23;;;;;;;;;;5072210;28;20240;-81
2022/04/19 13:59:23;;;;;;;11.30;10.20;;;;;;;;;;5072268;28;20704;-81
2022/04/19 14:02:00;;;;;;;24.10;21.60;;;;;;;;;;5072631;28;20236;-81
2022/04/19 14:04:28;;;;;;;27.47;23.40;;;;;;;;;;5072065;28;20220;-81
2022/04/19 14:06:56;;;;;;;23.97;19.60;;;;;;;;;;5072583;28;20225;-81
2022/04/19 14:09:23;;;;;;;18.67;16.97;;;;;;;;;;5071896;28;20197;-81
2022/04/19 14:11:50;;;;;;;29.17;23.67;;;;;;;;;;5072045;28;20243;-81
2022/04/19 14:14:18;;;;;;;27.07;22.37;;;;;;;;;;5072040;28;20258;-81
2022/04/19 14:16:46;;;;;;;23.43;20.23;;;;;;;;;;5071725;28;20327;-81
2022/04/19 14:19:14;;;;;;;29.23;23.07;;;;;;;;;;5071719;28;20208;-81
2022/04/19 14:21:42;;;;;;;18.80;16.97;;;;;;;;;;5072056;28;20197;-81
2022/04/19 14:24:10;;;;;;;42.00;27.63;;;;;;;;;;5071843;28;20220;-82
2022/04/19 14:26:37;;;;;;;34.40;26.93;;;;;;;;;;5071879;28;20196;-82
2022/04/19 14:34:48;;;;;;;24.87;19.37;;;;;;;;;;5010290;28;20179;-82
2022/04/19 14:37:17;;;;;;;18.77;15.00;;;;;;;;;;5044564;28;20280;-82
2022/04/19 14:39:44;;;;;;;17.07;15.43;;;;;;;;;;5071582;28;20235;-82
2022/04/19 14:42:12;;;;;;;17.73;15.70;;;;;;;;;;5071933;28;20649;-82
2022/04/19 14:44:39;;;;;;;13.10;11.77;;;;;;;;;;5071410;28;20255;-82
2022/04/19 14:47:07;;;;;;;18.77;15.27;;;;;;;;;;5071861;28;20201;-82
2022/04/19 14:49:37;;;;;;;35.17;22.30;;;;;;;;;;5071683;28;20250;-82
2022/04/19 14:54:54;;;;;;;26.57;19.23;;;;;;;;;;5071659;28;20668;-82
2022/04/19 14:57:25;;;;;;;18.37;15.17;;;;;;;;;;5071854;28;20280;-82
2022/04/19 14:59:52;;;;;;;23.20;18.23;;;;;;;;;;5071443;28;20197;-82
2022/04/19 15:02:22;;;;;;;38.23;31.27;;;;;;;;;;5071533;28;20236;-82
2022/04/19 15:04:49;;;;;;;19.00;17.20;;;;;;;;;;5071268;28;20316;-82
2022/04/19 15:07:17;;;;;;;14.37;12.83;;;;;;;;;;5071633;28;20200;-82
2022/04/19 15:09:44;;;;;;;15.90;14.30;;;;;;;;;;5071475;28;20258;-82
2022/04/19 15:12:13;;;;;;;15.43;13.93;;;;;;;;;;5071705;28;20236;-82
2022/04/19 15:14:40;;;;;;;18.70;15.07;;;;;;;;;;5071343;28;20203;-82
2022/04/19 15:17:07;;;;;;;10.30;9.23;;;;;;;;;;5072346;28;20316;-82
2022/04/19 15:19:34;;;;;;;11.03;10.03;;;;;;;;;;5075285;28;20262;-82
2022/04/19 15:22:02;;;;;;;10.13;9.13;;;;;;;;;;5075523;28;20304;-82
2022/04/19 15:24:29;;;;;;;7.10;6.50;;;;;;;;;;5075131;28;20225;-82
2022/04/19 15:26:56;;;;;;;8.93;8.13;;;;;;;;;;5075278;28;20197;-82
2022/04/19 15:29:29;;;;;;;7.23;6.57;;;;;;;;;;5074945;28;20197;-81
2022/04/19 15:31:57;;;;;;;7.90;7.30;;;;;;;;;;5075220;28;20186;-82
2022/04/19 15:34:24;;;;;;;6.27;5.73;;;;;;;;;;5074755;28;20193;-82
2022/04/19 15:36:51;;;;;;;6.60;6.00;;;;;;;;;;5075198;28;20292;-82
2022/04/19 15:39:18;;;;;;;7.53;6.93;;;;;;;;;;5074878;28;20227;-82
2022/04/19 15:41:46;;;;;;;7.50;6.80;;;;;;;;;;5075374;28;20284;-82
2022/04/19 15:44:13;;;;;;;7.27;6.57;;;;;;;;;;5074888;28;20252;-82
2022/04/19 15:46:42;;;;;;;6.60;6.07;;;;;;;;;;5074989;28;20209;-82